Terminal Aerodrome Forecast
Issued by NWS Shreveport, LA

Home | Current Version | Previous Version | Text Only | Print | Product List | Glossary On
Versions: 1 2 3 4 5 6 7 8 9 10 11 12 13 14 15 16
000
FTUS44 KSHV 011700
TAFGGG
TAF
KGGG 011740Z 0118/0218 31014G22KT P6SM SCT010 OVC020
      TEMPO 0118/0120 27008KT -SHRA SCT020 OVC040
     FM012200 32014G22KT P6SM SCT020 BKN080
     FM020200 34012G18KT P6SM SKC
     FM021200 35010KT P6SM SKC=

USA.gov is the U.S. government's official web portal to all federal, state and local government web resources and services.